Time;durP1;ratioP1;P1;durP2;ratioP2;P2;SDS_P1;SDS_P2;PMS_P1;PMS_P2;Temp;Humidity;BMP_temperature;BMP_pressure;BME280_temperature;BME280_humidity;BME280_pressure;Samples;Min_cycle;Max_cycle;Signal;HPM_P1;HPM_P2
2022/10/07 00:01:00;;;;;;;7.17;3.33;;;13.50;69.40;;;15.93;53.53;102643.41;5113579;28;20188;-59
2022/10/07 00:03:28;;;;;;;6.07;3.40;;;13.40;69.60;;;15.88;53.67;102635.91;5113201;28;20247;-59
2022/10/07 00:06:03;;;;;;;7.77;3.60;;;13.40;69.70;;;15.78;53.68;102645.03;5113651;28;20548;-58
2022/10/07 00:08:33;;;;;;;7.40;3.83;;;13.40;70.00;;;15.70;53.88;102648.50;5113873;28;20688;-59
2022/10/07 00:11:05;;;;;;;10.47;3.90;;;13.30;70.00;;;15.64;54.15;102638.53;5112089;28;20195;-58
2022/10/07 00:13:35;;;;;;;6.50;3.20;;;13.20;70.10;;;15.60;54.17;102634.50;5113434;28;20222;-57
2022/10/07 00:16:05;;;;;;;7.70;3.70;;;13.20;70.30;;;15.54;54.39;102628.03;5113438;28;20271;-57
2022/10/07 00:18:35;;;;;;;7.43;3.70;;;13.10;70.40;;;15.49;54.53;102632.16;5113425;28;20279;-56
2022/10/07 00:21:08;;;;;;;9.87;3.77;;;13.10;70.60;;;15.45;54.51;102623.66;5113189;28;20196;-55
2022/10/07 00:23:35;;;;;;;8.33;3.87;;;13.10;70.70;;;15.41;54.88;102621.47;5113437;28;20234;-56
2022/10/07 00:26:06;;;;;;;5.70;3.00;;;13.00;70.80;;;15.35;54.70;102616.81;5113438;28;20199;-55
2022/10/07 00:28:35;;;;;;;9.03;4.40;;;13.00;71.00;;;15.33;55.12;102624.09;5130992;28;20210;-59
2022/10/07 00:31:06;;;;;;;7.07;3.70;;;12.90;71.10;;;15.30;54.73;102608.50;5133404;27;20210;-58
2022/10/07 00:33:36;;;;;;;6.37;3.50;;;12.90;71.10;;;15.27;55.16;102608.78;5128510;27;20245;-58
2022/10/07 00:36:09;;;;;;;4.87;3.13;;;12.90;71.30;;;15.24;54.93;102604.63;5114035;28;20229;-58
2022/10/07 00:38:37;;;;;;;7.23;3.47;;;12.90;71.40;;;15.26;54.72;102602.66;5112443;28;20203;-58
2022/10/07 00:41:07;;;;;;;5.50;3.57;;;12.80;71.40;;;15.27;54.80;102603.50;5113273;28;20207;-56
2022/10/07 00:43:34;;;;;;;5.40;3.23;;;12.80;71.30;;;15.29;54.91;102597.03;5113069;28;20246;-58
2022/10/07 00:46:10;;;;;;;11.53;3.73;;;12.80;71.50;;;15.26;54.58;102592.03;5113176;28;20196;-58
2022/10/07 00:48:39;;;;;;;6.67;3.37;;;12.80;71.50;;;15.26;54.75;102589.38;5117449;28;20183;-56
2022/10/07 00:51:09;;;;;;;7.17;3.17;;;12.80;71.40;;;15.22;55.09;102584.56;5116726;28;20207;-59
2022/10/07 00:53:40;;;;;;;8.37;3.43;;;12.70;71.50;;;15.19;54.95;102580.41;5117637;28;20207;-56
2022/10/07 00:56:09;;;;;;;9.00;3.60;;;12.70;71.40;;;15.18;54.88;102567.31;5117174;28;20199;-59
2022/10/07 00:58:39;;;;;;;6.57;3.63;;;12.70;71.60;;;15.16;54.91;102577.25;5117073;28;20183;-58
2022/10/07 01:01:07;;;;;;;9.50;3.17;;;12.70;71.40;;;15.16;54.79;102574.59;5117014;28;20192;-58
2022/10/07 01:03:36;;;;;;;8.93;3.23;;;12.70;71.40;;;15.16;55.02;102579.91;5116659;28;20211;-58
2022/10/07 01:06:04;;;;;;;6.93;3.17;;;12.70;71.50;;;15.17;54.68;102584.19;5117043;28;20200;-58
2022/10/07 01:08:33;;;;;;;9.80;3.20;;;12.60;71.50;;;15.15;54.91;102583.53;5117026;28;20184;-58
2022/10/07 01:11:15;;;;;;;5.37;2.50;;;12.60;71.50;;;15.13;54.78;102575.75;5116650;28;20241;-57
2022/10/07 01:14:01;;;;;;;8.07;3.17;;;12.60;71.50;;;15.09;55.02;102577.06;5116945;28;20220;-55
2022/10/07 01:16:41;;;;;;;7.97;3.00;;;12.60;71.50;;;15.11;54.75;102572.44;5116457;28;20183;-58
2022/10/07 01:19:39;;;;;;;6.90;2.57;;;12.60;71.40;;;15.10;54.88;102570.75;5116657;28;20172;-57
2022/10/07 01:22:24;;;;;;;6.43;3.30;;;12.60;71.30;;;15.11;54.58;102566.28;5116292;28;20211;-58
2022/10/07 01:25:14;;;;;;;7.50;2.73;;;12.60;71.30;;;15.10;54.48;102559.31;5116386;28;20180;-58
2022/10/07 01:27:50;;;;;;;5.87;2.80;;;12.60;71.20;;;15.12;54.25;102566.13;5126881;27;20557;-58
2022/10/07 01:30:18;;;;;;;7.37;3.10;;;12.60;71.10;;;15.14;54.42;102556.16;5137265;27;20640;-58
2022/10/07 01:32:52;;;;;;;5.13;2.33;;;12.60;71.10;;;15.17;54.16;102555.03;5136294;27;20211;-58
2022/10/07 01:35:25;;;;;;;5.87;2.43;;;12.60;71.10;;;15.15;54.13;102546.41;5115106;28;20203;-58
2022/10/07 01:37:59;;;;;;;5.30;2.67;;;12.60;71.00;;;15.16;54.30;102542.78;5116449;28;20535;-58
2022/10/07 01:40:33;;;;;;;8.70;3.03;;;12.60;70.80;;;15.15;53.93;102535.78;5131607;27;20507;-58
2022/10/07 01:43:03;;;;;;;4.50;2.43;;;12.60;70.80;;;15.16;54.17;102529.50;5131214;27;20219;-57
2022/10/07 01:45:35;;;;;;;4.10;2.17;;;12.60;70.70;;;15.14;53.82;102523.53;5115955;28;20594;-59
2022/10/07 01:48:02;;;;;;;8.87;2.87;;;12.60;70.70;;;15.12;54.24;102517.56;5116108;28;20249;-58
2022/10/07 01:50:32;;;;;;;8.70;2.53;;;12.60;70.70;;;15.11;54.00;102521.19;5115399;28;20212;-59
2022/10/07 01:53:19;;;;;;;6.47;2.50;;;12.50;70.60;;;15.07;54.22;102511.91;5115849;28;20200;-56
2022/10/07 01:56:01;;;;;;;6.00;2.23;;;12.50;70.70;;;15.04;54.32;102513.06;5115823;27;20686;-59
2022/10/07 01:59:07;;;;;;;4.77;2.43;;;12.50;70.70;;;15.00;54.01;102513.53;5115559;28;20187;-59
2022/10/07 02:01:47;;;;;;;5.20;2.43;;;12.50;70.70;;;14.96;54.25;102504.22;5115437;28;20616;-58
2022/10/07 02:04:42;;;;;;;7.97;2.60;;;12.50;70.70;;;14.91;54.26;102512.66;5116039;28;20215;-58
2022/10/07 02:07:28;;;;;;;5.70;2.43;;;12.40;70.60;;;14.88;54.18;102495.25;5115582;28;20645;-58
2022/10/07 02:10:09;;;;;;;7.30;2.40;;;12.40;70.60;;;14.84;54.28;102501.84;5115757;28;20245;-58
2022/10/07 02:12:42;;;;;;;5.93;2.33;;;12.40;70.60;;;14.76;54.35;102487.75;5115414;28;20687;-57
2022/10/07 02:15:16;;;;;;;5.50;1.77;;;12.30;70.50;;;14.74;54.51;102492.34;5115459;28;20245;-58
2022/10/07 02:17:50;;;;;;;5.60;2.30;;;12.30;70.50;;;14.75;54.51;102492.22;5115271;28;20195;-56
2022/10/07 02:20:22;;;;;;;7.30;2.07;;;12.30;70.60;;;14.79;54.43;102485.59;5115323;28;20233;-59
2022/10/07 02:22:53;;;;;;;5.30;2.07;;;12.30;70.70;;;14.82;54.35;102487.94;5115298;27;20220;-58
2022/10/07 02:25:22;;;;;;;8.37;2.33;;;12.30;70.70;;;14.85;54.26;102482.31;5115158;28;20229;-57
2022/10/07 02:27:54;;;;;;;7.63;2.47;;;12.30;70.70;;;14.85;54.09;102479.66;5126680;27;20247;-56
2022/10/07 02:30:23;;;;;;;4.37;2.40;;;12.30;70.70;;;14.88;54.07;102475.88;5134996;27;20247;-60
2022/10/07 02:32:57;;;;;;;7.73;2.00;;;12.30;70.70;;;14.88;54.05;102471.38;5135391;27;20736;-58
2022/10/07 02:35:33;;;;;;;9.43;2.43;;;12.30;70.70;;;14.83;53.98;102468.38;5094876;28;20184;-58
2022/10/07 02:38:08;;;;;;;5.27;2.33;;;12.30;70.80;;;14.83;53.96;102468.38;5095161;28;20199;-59
2022/10/07 02:40:42;;;;;;;4.10;2.03;;;12.30;70.70;;;14.82;54.06;102461.44;5094403;28;20185;-59
2022/10/07 02:43:20;;;;;;;4.67;2.10;;;12.20;70.60;;;14.83;53.88;102463.06;5101511;28;20352;-57
2022/10/07 02:46:00;;;;;;;4.63;2.20;;;12.20;70.70;;;14.77;54.00;102458.41;5114994;28;20206;-58
2022/10/07 02:48:34;;;;;;;5.73;2.20;;;12.20;70.60;;;14.74;54.12;102463.19;5115105;28;20218;-57
2022/10/07 02:51:07;;;;;;;6.73;2.27;;;12.20;70.70;;;14.74;54.23;102458.72;5114519;28;20594;-59
2022/10/07 02:53:38;;;;;;;6.20;2.47;;;12.20;70.70;;;14.77;53.95;102458.41;5114989;28;20224;-56
2022/10/07 02:56:06;;;;;;;6.63;2.50;;;12.20;70.80;;;14.79;54.08;102450.28;5115037;28;20187;-57
2022/10/07 02:58:35;;;;;;;2.73;2.10;;;12.20;70.70;;;14.75;53.98;102460.41;5114756;28;20737;-59
2022/10/07 03:01:09;;;;;;;7.03;2.57;;;12.10;70.60;;;14.74;54.00;102453.44;5114352;28;20188;-56
2022/10/07 03:03:37;;;;;;;3.83;2.03;;;12.10;70.70;;;14.77;53.97;102453.13;5114618;27;20671;-58
2022/10/07 03:06:04;;;;;;;8.23;2.17;;;12.10;70.60;;;14.78;53.88;102453.94;5114194;28;20196;-58
2022/10/07 03:08:32;;;;;;;5.20;2.30;;;12.10;70.60;;;14.76;53.76;102443.50;5114362;28;20261;-59
2022/10/07 03:10:59;;;;;;;6.53;2.30;;;12.10;70.60;;;14.79;53.97;102445.00;5113811;28;20309;-58
2022/10/07 03:13:26;;;;;;;6.30;2.23;;;12.10;70.80;;;14.79;53.65;102435.22;5114469;28;20212;-57
2022/10/07 03:15:53;;;;;;;7.73;2.33;;;12.10;70.80;;;14.77;53.75;102442.50;5114584;28;20215;-58
2022/10/07 03:18:26;;;;;;;5.43;2.00;;;12.10;70.60;;;14.74;53.83;102432.22;5114537;28;20223;-58
2022/10/07 03:20:55;;;;;;;6.30;2.60;;;12.10;70.60;;;14.73;53.56;102435.88;5114349;28;20498;-57
2022/10/07 03:23:23;;;;;;;4.33;2.17;;;12.10;70.60;;;14.72;53.86;102434.19;5114243;28;20211;-57
2022/10/07 03:25:52;;;;;;;9.23;2.90;;;12.00;70.60;;;14.68;53.99;102432.03;5114201;28;20195;-59
2022/10/07 03:28:24;;;;;;;4.60;2.10;;;12.00;70.60;;;14.63;53.82;102432.50;5114494;28;20211;-59
2022/10/07 03:30:52;;;;;;;5.40;1.83;;;12.00;70.70;;;14.60;53.91;102424.88;5113858;28;20536;-57
2022/10/07 03:33:25;;;;;;;5.70;2.40;;;12.00;70.70;;;14.60;54.03;102424.03;5113994;28;20234;-58
2022/10/07 03:35:52;;;;;;;5.30;2.37;;;12.00;71.00;;;14.59;54.37;102425.88;5108167;28;20253;-58
2022/10/07 03:38:21;;;;;;;5.63;2.40;;;12.00;70.90;;;14.55;54.05;102419.22;5093988;28;20195;-59
2022/10/07 03:40:48;;;;;;;5.17;2.60;;;12.00;70.90;;;14.54;54.27;102414.94;5130729;27;20256;-57
2022/10/07 03:43:17;;;;;;;6.50;2.67;;;11.90;70.90;;;14.52;54.12;102416.91;5134259;27;20218;-58
2022/10/07 03:45:48;;;;;;;7.00;2.33;;;11.90;70.80;;;14.54;54.17;102416.75;5119922;27;20183;-58
2022/10/07 03:48:15;;;;;;;7.63;2.67;;;11.90;70.90;;;14.53;54.00;102413.25;5113740;28;20482;-58
2022/10/07 03:50:48;;;;;;;4.13;2.40;;;11.90;70.80;;;14.51;54.22;102409.94;5113045;28;20203;-58
2022/10/07 03:53:16;;;;;;;5.47;2.40;;;11.90;71.00;;;14.50;54.08;102402.16;5113704;28;20231;-59
2022/10/07 03:55:43;;;;;;;9.43;2.83;;;11.90;70.90;;;14.47;54.28;102403.31;5113919;28;20192;-59
2022/10/07 03:58:11;;;;;;;6.83;2.60;;;11.90;71.10;;;14.45;54.35;102394.69;5113542;28;20600;-59
2022/10/07 04:00:40;;;;;;;7.13;2.13;;;11.90;71.10;;;14.44;54.22;102395.66;5113294;28;20713;-59
2022/10/07 04:03:08;;;;;;;5.97;3.07;;;11.80;71.00;;;14.42;54.43;102391.50;5112985;28;20227;-59
2022/10/07 04:05:36;;;;;;;6.77;2.40;;;11.80;71.10;;;14.41;54.42;102385.38;5113996;28;20254;-57
2022/10/07 04:08:05;;;;;;;5.00;2.80;;;11.80;71.20;;;14.38;54.47;102383.03;5113555;28;20183;-59
2022/10/07 04:10:33;;;;;;;8.77;2.67;;;11.80;71.30;;;14.37;54.32;102381.38;5113299;28;20675;-58
2022/10/07 04:13:00;;;;;;;6.10;2.17;;;11.70;71.20;;;14.38;54.79;102375.09;5113624;28;20204;-58
2022/10/07 04:15:27;;;;;;;6.53;2.20;;;11.80;71.70;;;14.43;54.67;102375.44;5113486;28;20245;-56
2022/10/07 04:17:57;;;;;;;5.70;2.83;;;11.80;71.90;;;14.52;54.92;102368.38;5113549;28;20192;-56
2022/10/07 04:20:25;;;;;;;5.77;2.47;;;11.80;72.40;;;14.60;54.24;102369.22;5113273;28;20188;-56
2022/10/07 04:22:52;;;;;;;7.03;2.20;;;11.90;71.60;;;14.63;53.90;102366.25;5117606;28;20211;-56
2022/10/07 04:25:33;;;;;;;7.50;2.83;;;12.00;71.10;;;14.64;54.03;102370.56;5118079;28;20522;-58
2022/10/07 04:28:03;;;;;;;9.03;2.60;;;12.00;71.00;;;14.57;53.62;102366.88;5130935;27;20198;-58
2022/10/07 04:30:38;;;;;;;8.43;3.00;;;12.00;70.50;;;14.51;54.00;102372.84;5137766;27;20250;-59
2022/10/07 04:33:06;;;;;;;6.43;2.80;;;11.90;70.40;;;14.45;54.13;102368.19;5136089;27;20211;-57
2022/10/07 04:35:37;;;;;;;10.90;2.83;;;11.90;70.60;;;14.44;54.12;102361.22;5117336;27;20644;-57
2022/10/07 04:38:08;;;;;;;5.77;2.50;;;11.90;70.90;;;14.45;53.92;102357.59;5117171;28;20196;-59
2022/10/07 04:40:41;;;;;;;9.20;2.90;;;11.80;71.00;;;14.44;54.17;102363.88;5133644;27;20697;-58
2022/10/07 04:43:18;;;;;;;9.37;3.17;;;11.80;71.30;;;14.39;54.47;102363.50;5137538;27;20218;-58
2022/10/07 04:45:46;;;;;;;5.97;3.07;;;11.80;71.20;;;14.33;54.68;102353.56;5123124;27;20697;-59
2022/10/07 04:48:17;;;;;;;4.83;2.80;;;11.80;71.30;;;14.29;54.58;102352.16;5116817;28;20266;-57
2022/10/07 04:50:45;;;;;;;11.27;3.60;;;11.70;71.40;;;14.27;54.62;102343.56;5116765;28;20531;-58
2022/10/07 04:53:15;;;;;;;8.33;2.87;;;11.70;71.50;;;14.27;54.67;102349.69;5117164;28;20212;-58
2022/10/07 04:55:47;;;;;;;6.20;2.53;;;11.70;71.50;;;14.26;54.81;102352.50;5117171;28;20199;-57
2022/10/07 04:58:16;;;;;;;8.20;3.23;;;11.60;72.40;;;14.24;54.95;102343.88;5116442;28;20208;-59
2022/10/07 05:00:46;;;;;;;6.73;3.20;;;11.60;71.80;;;14.21;55.36;102345.00;5116827;28;20279;-59
2022/10/07 05:03:16;;;;;;;8.50;3.27;;;11.60;71.90;;;14.18;55.01;102348.00;5116409;28;20730;-58
2022/10/07 05:05:46;;;;;;;3.23;2.40;;;11.60;72.10;;;14.21;54.97;102349.50;5115822;28;20518;-58
2022/10/07 05:08:16;;;;;;;10.10;3.17;;;11.60;72.10;;;14.17;55.01;102343.69;5116066;28;20190;-57
2022/10/07 05:10:46;;;;;;;10.30;4.23;;;11.50;72.30;;;14.17;55.53;102350.78;5115733;28;20203;-58
2022/10/07 05:13:15;;;;;;;8.03;3.93;;;11.50;72.50;;;14.16;55.11;102352.63;5116103;28;20199;-57
2022/10/07 05:15:51;;;;;;;8.13;3.47;;;11.50;72.40;;;14.11;55.44;102346.13;5116499;27;20202;-57
2022/10/07 05:18:19;;;;;;;7.17;3.53;;;11.50;72.60;;;14.08;55.63;102351.75;5116881;28;20187;-57
2022/10/07 05:20:49;;;;;;;9.73;3.70;;;11.50;72.80;;;14.07;55.63;102352.75;5116341;28;20190;-59
2022/10/07 05:23:20;;;;;;;8.03;3.07;;;11.50;72.80;;;14.04;55.75;102347.75;5116419;28;20260;-57
2022/10/07 05:26:01;;;;;;;7.43;4.20;;;11.50;72.90;;;13.99;55.55;102344.75;5116452;27;20172;-57
2022/10/07 05:28:28;;;;;;;6.63;3.57;;;11.50;73.00;;;14.02;55.79;102331.19;5133474;27;20190;-56
2022/10/07 05:31:05;;;;;;;8.93;3.90;;;11.40;73.00;;;14.05;55.72;102347.59;5136537;27;20672;-55
2022/10/07 05:33:34;;;;;;;6.83;3.53;;;11.40;73.00;;;14.09;55.76;102338.38;5134548;27;20243;-59
2022/10/07 05:36:02;;;;;;;7.60;3.70;;;11.50;73.00;;;14.12;55.71;102345.16;5118314;28;20191;-58
2022/10/07 05:38:30;;;;;;;8.73;3.47;;;11.50;73.00;;;14.15;55.45;102344.81;5115909;28;20191;-58
2022/10/07 05:41:01;;;;;;;10.03;3.97;;;11.50;72.90;;;14.18;55.31;102341.88;5115334;27;20645;-58
2022/10/07 05:43:31;;;;;;;8.20;4.47;;;11.50;72.80;;;14.18;55.16;102342.72;5116222;28;20235;-59
2022/10/07 05:46:00;;;;;;;7.20;3.70;;;11.50;72.80;;;14.17;55.21;102348.13;5114772;28;20188;-57
2022/10/07 05:48:29;;;;;;;8.37;3.93;;;11.50;72.70;;;14.14;55.52;102338.69;5116118;28;20191;-59
2022/10/07 05:51:02;;;;;;;11.10;3.90;;;11.50;72.80;;;14.10;55.51;102336.53;5116103;28;20549;-56
2022/10/07 05:53:30;;;;;;;14.07;3.57;;;11.50;72.70;;;14.09;55.46;102338.38;5114931;28;20224;-56
2022/10/07 05:56:03;;;;;;;11.53;4.17;;;11.50;72.80;;;14.10;55.41;102339.16;5115920;28;20201;-59
2022/10/07 05:58:30;;;;;;;9.00;4.37;;;11.40;72.70;;;14.08;55.85;102334.03;5116673;28;20600;-58
2022/10/07 06:00:59;;;;;;;9.50;4.23;;;11.40;72.90;;;14.06;55.61;102335.19;5113491;27;20207;-56
2022/10/07 06:03:33;;;;;;;9.40;3.70;;;11.40;73.00;;;14.05;55.74;102326.41;5115828;28;20668;-56
2022/10/07 06:06:00;;;;;;;10.40;3.63;;;11.40;73.10;;;14.08;55.86;102327.91;5109311;28;20192;-59
2022/10/07 06:08:28;;;;;;;7.40;3.07;;;11.40;73.30;;;14.13;55.73;102325.63;5095270;28;20624;-56
2022/10/07 06:13:49;;;;;;;10.50;3.67;;;11.50;73.60;;;14.22;55.43;102325.50;5095282;28;20220;-55
2022/10/07 06:16:17;;;;;;;6.60;3.37;;;11.50;73.20;;;14.25;55.28;102322.53;5094992;28;20630;-56
2022/10/07 06:18:45;;;;;;;7.43;3.70;;;11.50;73.00;;;14.26;55.48;102320.72;5094810;28;20199;-59
2022/10/07 06:21:13;;;;;;;6.17;3.43;;;11.50;72.80;;;14.27;55.47;102325.03;5094571;28;20185;-59
2022/10/07 06:23:41;;;;;;;8.90;3.87;;;11.60;72.90;;;14.26;55.53;102323.38;5095546;28;20219;-59
2022/10/07 06:26:12;;;;;;;7.33;3.70;;;11.60;73.10;;;14.31;55.38;102323.72;5095149;28;20185;-58
2022/10/07 06:28:41;;;;;;;7.07;3.17;;;11.60;73.20;;;14.35;55.49;102330.41;5094422;28;20192;-57
2022/10/07 06:31:12;;;;;;;6.83;3.90;;;11.60;73.00;;;14.37;55.35;102317.81;5094260;28;20267;-57
2022/10/07 06:33:39;;;;;;;7.73;3.70;;;11.70;73.10;;;14.42;55.16;102319.97;5100695;28;20232;-57
2022/10/07 06:36:11;;;;;;;11.23;4.30;;;11.70;73.00;;;14.46;55.10;102316.84;5115319;28;20195;-59
2022/10/07 06:38:44;;;;;;;7.77;3.50;;;11.70;73.10;;;14.50;55.16;102318.16;5116386;27;20233;-57
2022/10/07 06:41:14;;;;;;;10.33;4.17;;;11.70;72.90;;;14.55;55.20;102328.28;5115126;28;20183;-59
2022/10/07 06:43:42;;;;;;;7.70;3.43;;;11.80;72.90;;;14.62;55.03;102327.47;5107834;28;20220;-56
2022/10/07 06:46:14;;;;;;;12.07;3.97;;;11.80;72.90;;;14.70;54.76;102330.16;5094926;28;20253;-57
2022/10/07 06:48:44;;;;;;;10.73;4.00;;;11.90;72.90;;;14.76;54.70;102324.19;5094098;28;20185;-58
2022/10/07 06:51:15;;;;;;;10.13;3.17;;;12.00;72.80;;;14.80;54.69;102314.97;5095984;28;20202;-56
2022/10/07 06:53:43;;;;;;;14.13;4.00;;;12.00;72.70;;;14.85;54.69;102328.56;5095433;28;20270;-56
2022/10/07 06:56:13;;;;;;;8.30;3.40;;;12.10;72.60;;;14.91;54.27;102327.06;5095299;28;20715;-59
2022/10/07 06:58:42;;;;;;;11.03;3.80;;;12.10;72.40;;;14.96;54.48;102329.22;5094304;28;20219;-56
2022/10/07 07:01:11;;;;;;;11.17;4.03;;;12.10;72.30;;;15.03;54.25;102327.56;5093424;28;20751;-56
2022/10/07 07:03:39;;;;;;;9.87;3.27;;;12.20;72.40;;;15.09;54.24;102324.25;5094718;28;20569;-57
2022/10/07 07:06:07;;;;;;;11.20;4.43;;;12.30;72.30;;;15.13;54.16;102325.59;5100991;28;20247;-59
2022/10/07 07:08:37;;;;;;;9.27;3.93;;;12.30;72.10;;;15.15;54.23;102328.91;5120683;28;20188;-57
2022/10/07 07:11:34;;;;;;;10.93;4.00;;;12.40;72.00;;;15.15;54.04;102320.94;5114779;28;20226;-59
2022/10/07 07:13:57;;;;;;;9.00;3.50;;;12.40;71.90;;;15.14;54.46;102321.94;5114719;28;20315;-57
2022/10/07 07:16:25;;;;;;;9.07;3.40;;;12.50;72.00;;;15.20;54.27;102319.47;5114832;28;20188;-59
2022/10/07 07:18:54;;;;;;;8.50;3.30;;;12.50;72.00;;;15.29;54.22;102325.59;5114222;28;20614;-59
2022/10/07 07:21:23;;;;;;;7.30;3.50;;;12.50;71.90;;;15.33;54.06;102325.06;5113588;28;20183;-58
2022/10/07 07:23:51;;;;;;;8.23;3.40;;;12.60;71.80;;;15.43;53.85;102322.25;5114169;28;20211;-58
2022/10/07 07:26:22;;;;;;;11.50;4.27;;;12.70;71.90;;;15.49;53.54;102311.84;5114076;28;20196;-58
2022/10/07 07:28:57;;;;;;;8.80;3.80;;;12.70;71.60;;;15.53;53.63;102307.03;5133116;27;20179;-58
2022/10/07 07:31:30;;;;;;;5.77;2.93;;;12.80;71.50;;;15.59;53.76;102309.03;5133769;27;20558;-57
2022/10/07 07:34:00;;;;;;;11.43;3.27;;;12.90;72.20;;;15.67;53.69;102298.38;5124690;27;20247;-59
2022/10/07 07:36:30;;;;;;;9.13;3.53;;;12.90;71.20;;;15.75;53.57;102301.03;5114010;28;20188;-59
2022/10/07 07:39:00;;;;;;;5.00;3.27;;;13.00;71.40;;;15.85;53.22;102301.66;5114765;28;20195;-58
2022/10/07 07:41:31;;;;;;;10.00;3.07;;;13.10;71.30;;;15.97;53.27;102295.00;5113838;28;20648;-58
2022/10/07 07:44:03;;;;;;;7.97;3.10;;;13.30;71.10;;;16.07;53.11;102306.22;5113565;28;20223;-58
2022/10/07 07:46:38;;;;;;;9.70;3.40;;;13.40;70.50;;;16.18;52.83;102303.22;5100617;27;20233;-58
2022/10/07 07:49:06;;;;;;;12.37;4.07;;;13.50;70.20;;;16.31;52.26;102302.63;5110527;27;20652;-58
2022/10/07 07:51:33;;;;;;;7.93;3.07;;;13.60;69.90;;;16.36;52.38;102302.09;5126844;27;20215;-57
2022/10/07 07:54:01;;;;;;;7.57;3.03;;;13.70;69.60;;;16.47;52.10;102299.91;5111004;28;20215;-58
2022/10/07 07:56:30;;;;;;;11.83;3.60;;;13.80;69.50;;;16.62;51.65;102294.69;5113104;28;20202;-59
2022/10/07 07:59:00;;;;;;;9.00;2.97;;;13.90;69.30;;;16.83;51.81;102292.22;5112524;28;20271;-59
2022/10/07 08:01:30;;;;;;;7.33;3.40;;;14.00;69.40;;;16.91;51.26;102298.31;5112345;28;20192;-59
2022/10/07 08:04:00;;;;;;;8.20;3.20;;;14.20;68.80;;;17.05;50.84;102286.06;5115061;28;20245;-56
2022/10/07 08:06:30;;;;;;;9.33;3.67;;;14.30;68.50;;;17.17;50.72;102289.13;5102980;28;20188;-58
2022/10/07 08:08:58;;;;;;;7.63;3.50;;;14.40;67.90;;;17.16;50.48;102280.34;5093131;28;20204;-58
2022/10/07 08:11:27;;;;;;;8.40;3.00;;;14.50;67.50;;;17.09;50.77;102286.56;5105602;27;20291;-58
2022/10/07 08:13:55;;;;;;;8.03;3.37;;;14.50;67.30;;;17.07;50.94;102278.72;5129881;28;20255;-56
2022/10/07 08:16:26;;;;;;;8.40;2.83;;;14.60;67.20;;;17.19;50.81;102287.94;5114058;28;20192;-59
2022/10/07 08:18:56;;;;;;;5.77;3.20;;;14.70;67.40;;;17.24;50.61;102285.56;5112757;28;20192;-59
2022/10/07 08:21:29;;;;;;;6.83;3.00;;;14.70;67.10;;;17.36;50.59;102288.63;5113015;28;20232;-57
2022/10/07 08:23:58;;;;;;;9.17;3.63;;;14.80;67.30;;;17.67;50.05;102280.53;5113738;28;20226;-57
2022/10/07 08:26:28;;;;;;;10.83;3.73;;;14.90;67.20;;;17.97;49.75;102288.34;5115449;27;20290;-57
2022/10/07 08:28:56;;;;;;;9.13;2.80;;;15.10;67.30;;;18.15;48.72;102282.63;5134074;27;20593;-57
2022/10/07 08:31:28;;;;;;;10.30;3.07;;;15.20;65.70;;;18.35;47.99;102270.34;5133575;27;20226;-55
2022/10/07 08:33:58;;;;;;;10.70;3.33;;;15.40;65.10;;;18.73;47.81;102276.34;5134224;27;20207;-57
2022/10/07 08:36:31;;;;;;;7.87;3.33;;;15.60;65.50;;;19.10;46.42;102261.91;5124462;27;20241;-60
2022/10/07 08:39:01;;;;;;;13.43;3.43;;;15.80;64.20;;;19.24;46.09;102271.66;5114251;28;20182;-57
2022/10/07 08:41:55;;;;;;;6.30;3.63;;;16.00;63.10;;;19.32;45.71;102258.19;5115013;28;20203;-57
2022/10/07 08:44:31;;;;;;;12.40;3.47;;;16.10;62.50;;;19.35;45.73;102266.63;5112066;28;20663;-57
2022/10/07 08:47:15;;;;;;;7.97;2.70;;;16.30;62.10;;;19.53;45.70;102250.13;5113087;28;20219;-58
2022/10/07 08:49:55;;;;;;;8.30;3.03;;;16.50;63.00;;;19.65;45.51;102247.75;5113567;28;20192;-60
2022/10/07 08:52:34;;;;;;;8.43;3.20;;;16.60;61.90;;;19.88;45.05;102242.91;5112206;28;20220;-59
2022/10/07 08:55:03;;;;;;;13.23;3.93;;;16.80;61.70;;;20.33;44.34;102242.31;5112942;28;20192;-58
2022/10/07 08:58:04;;;;;;;6.50;2.97;;;16.90;61.40;;;20.87;43.24;102244.88;5112811;28;20252;-58
2022/10/07 09:00:41;;;;;;;6.47;3.03;;;17.20;60.90;;;21.40;41.43;102232.28;5092371;28;20707;-58
2022/10/07 09:03:29;;;;;;;7.23;2.40;;;17.60;60.30;;;21.93;40.50;102219.59;5091573;28;20214;-57
2022/10/07 09:06:00;;;;;;;10.67;3.37;;;17.90;59.00;;;22.56;39.74;102223.19;5093245;28;20379;-58
2022/10/07 09:08:39;;;;;;;10.47;3.17;;;18.30;57.90;;;23.33;39.14;102215.50;5094141;28;20191;-58
2022/10/07 09:11:15;;;;;;;5.37;2.40;;;18.90;58.20;;;24.01;37.65;102210.81;5096055;28;20583;-58
2022/10/07 09:13:49;;;;;;;10.00;3.00;;;19.40;56.60;;;24.76;35.95;102219.28;5096036;28;20620;-59
2022/10/07 09:16:23;;;;;;;9.93;3.27;;;19.90;54.30;;;25.26;34.06;102214.28;5095293;28;20300;-58
2022/10/07 09:18:56;;;;;;;7.53;3.57;;;20.40;52.40;;;25.83;33.69;102209.88;5095920;28;20180;-59
2022/10/07 09:21:35;;;;;;;7.20;2.40;;;21.00;51.80;;;26.55;33.29;102219.91;5095893;28;20177;-59
2022/10/07 09:24:25;;;;;;;6.67;2.50;;;21.60;51.30;;;27.51;31.60;102208.72;5096735;28;20208;-57
2022/10/07 09:27:11;;;;;;;6.33;2.60;;;22.30;49.60;;;28.30;30.28;102200.16;5102357;27;20580;-59
2022/10/07 09:29:41;;;;;;;8.30;3.77;;;22.90;48.30;;;28.97;30.18;102206.72;5137301;27;20175;-60
2022/10/07 09:32:12;;;;;;;5.90;3.23;;;23.60;47.70;;;29.10;28.13;102198.09;5130473;27;20613;-58
2022/10/07 09:34:40;;;;;;;5.37;2.70;;;24.00;43.90;;;29.23;28.30;102192.25;5116035;28;20184;-58
2022/10/07 09:37:19;;;;;;;7.70;3.17;;;24.40;43.50;;;29.46;28.78;102191.00;5115180;28;20207;-58
2022/10/07 09:39:52;;;;;;;7.43;3.40;;;24.70;42.90;;;30.04;27.94;102192.59;5116332;28;20206;-58
2022/10/07 09:42:39;;;;;;;7.80;2.80;;;25.10;42.70;;;30.56;27.37;102185.06;5115815;27;20517;-58
2022/10/07 09:45:24;;;;;;;9.47;3.57;;;25.40;41.80;;;30.83;25.88;102175.78;5109009;27;20200;-57
2022/10/07 09:47:55;;;;;;;7.67;3.00;;;25.60;39.30;;;30.29;26.98;102179.03;5116088;28;20721;-60
2022/10/07 09:50:37;;;;;;;8.20;3.20;;;25.60;39.90;;;30.37;26.54;102177.72;5115956;28;20188;-61
2022/10/07 09:53:16;;;;;;;7.77;2.90;;;25.70;39.00;;;30.44;26.11;102178.25;5116142;28;20713;-58
2022/10/07 09:55:49;;;;;;;11.17;3.90;;;25.70;39.00;;;30.47;26.70;102177.72;5115374;28;20196;-59
2022/10/07 09:58:23;;;;;;;9.00;3.27;;;25.70;39.50;;;30.68;26.30;102169.28;5116019;28;20184;-60
2022/10/07 10:00:54;;;;;;;8.50;3.03;;;25.70;39.40;;;30.30;26.39;102164.38;5116100;27;20283;-59
2022/10/07 10:03:29;;;;;;;10.33;3.53;;;25.60;39.20;;;30.28;26.32;102163.00;5115531;28;20215;-57
2022/10/07 10:05:59;;;;;;;5.53;2.70;;;25.50;39.10;;;30.31;26.28;102167.91;5116543;28;20206;-58
2022/10/07 10:08:31;;;;;;;9.03;3.00;;;25.30;39.30;;;30.36;26.46;102165.22;5116636;28;20214;-59
2022/10/07 10:11:02;;;;;;;9.30;3.47;;;25.30;39.70;;;30.23;26.37;102160.28;5115347;28;20203;-59
2022/10/07 10:13:33;;;;;;;8.60;3.03;;;25.20;39.60;;;30.29;26.72;102161.91;5115517;28;20243;-60
2022/10/07 10:16:03;;;;;;;7.70;3.10;;;25.10;40.00;;;30.46;26.74;102155.16;5115084;28;20283;-60
2022/10/07 10:18:35;;;;;;;7.10;3.10;;;25.10;40.60;;;30.31;26.58;102155.13;5114817;28;20192;-60
2022/10/07 10:21:28;;;;;;;11.47;3.50;;;25.10;40.00;;;30.33;25.92;102144.84;5114091;28;20196;-58
2022/10/07 10:23:59;;;;;;;7.50;2.97;;;25.20;40.30;;;29.93;26.97;102142.06;5115244;28;20230;-60
2022/10/07 10:27:08;;;;;;;8.13;3.27;;;25.10;39.70;;;29.12;27.46;102144.41;5115664;28;20176;-60
2022/10/07 10:29:54;;;;;;;9.30;3.40;;;25.00;39.80;;;28.42;28.29;102142.03;5110954;28;20230;-58
2022/10/07 10:33:16;;;;;;;8.83;2.63;;;24.80;39.60;;;27.59;29.10;102133.59;5114668;28;20580;-60
2022/10/07 10:35:58;;;;;;;8.63;3.53;;;24.60;39.80;;;26.57;30.84;102135.91;5093825;28;20207;-59
2022/10/07 10:38:45;;;;;;;6.43;3.07;;;24.00;40.50;;;25.93;31.69;102134.50;5095575;28;20226;-59